Time;durP1;ratioP1;P1;durP2;ratioP2;P2;SDS_P1;SDS_P2;PMS_P1;PMS_P2;Temp;Humidity;BMP_temperature;BMP_pressure;BME280_temperature;BME280_humidity;BME280_pressure;Samples;Min_cycle;Max_cycle;Signal;HPM_P1;HPM_P2
2023/01/18 00:00:44;;;;;;;23.10;9.70;;;-0.50;99.90;;;;;;15199450;23;20058;-38
2023/01/18 00:06:46;;;;;;;21.33;9.43;;;-0.50;99.90;;;;;;15205775;23;20032;-38
2023/01/18 00:12:49;;;;;;;21.75;9.38;;;-0.50;99.90;;;;;;15204840;23;20382;-38
2023/01/18 00:18:53;;;;;;;19.20;9.02;;;-0.40;99.90;;;;;;15205870;23;20058;-38
2023/01/18 00:24:55;;;;;;;16.90;9.07;;;-0.50;99.90;;;;;;15203272;23;20395;-38
2023/01/18 00:30:57;;;;;;;19.48;8.80;;;-0.50;99.90;;;;;;15204387;23;20109;-38
2023/01/18 00:36:59;;;;;;;19.33;8.70;;;-0.60;99.90;;;;;;15202933;23;20459;-38
2023/01/18 00:49:22;;;;;;;17.48;8.75;;;-0.60;99.90;;;;;;15208559;23;20022;-38
2023/01/18 00:55:25;;;;;;;15.15;8.35;;;-0.60;99.90;;;;;;15207554;23;20029;-38
2023/01/18 01:01:26;;;;;;;15.70;8.13;;;-0.60;99.90;;;;;;15205782;23;20116;-38
2023/01/18 01:07:28;;;;;;;18.00;8.73;;;-0.70;99.90;;;;;;15206485;23;20025;-38
2023/01/18 01:26:12;;;;;;;23.60;11.48;;;-1.10;99.90;;;;;;15206013;23;20026;-38
2023/01/18 01:32:13;;;;;;;25.15;11.15;;;-1.20;99.90;;;;;;15209382;23;20124;-37
2023/01/18 01:38:15;;;;;;;19.60;11.02;;;-1.30;99.90;;;;;;15206558;23;20101;-38
2023/01/18 01:44:18;;;;;;;21.10;10.95;;;-1.30;99.90;;;;;;15206148;23;20066;-38
2023/01/18 01:50:24;;;;;;;23.95;12.00;;;-1.40;99.90;;;;;;15206049;23;20046;-38
2023/01/18 01:56:27;;;;;;;20.75;10.43;;;-1.40;99.90;;;;;;15207713;23;20026;-37
2023/01/18 02:02:32;;;;;;;19.83;11.45;;;-1.40;99.90;;;;;;15207172;23;20026;-38
2023/01/18 02:08:34;;;;;;;27.63;11.75;;;-1.50;99.90;;;;;;15205332;23;20029;-37
2023/01/18 02:14:36;;;;;;;21.98;11.35;;;-1.50;99.90;;;;;;15179698;23;20129;-38
2023/01/18 02:20:47;;;;;;;26.20;12.73;;;-1.60;99.90;;;;;;15205636;23;20026;-38
2023/01/18 02:26:52;;;;;;;19.40;9.80;;;-1.70;99.90;;;;;;15205363;23;20389;-38
2023/01/18 02:33:06;;;;;;;19.27;9.90;;;-1.70;99.90;;;;;;15205718;23;20080;-38
2023/01/18 02:39:37;;;;;;;20.48;10.23;;;-1.60;99.90;;;;;;15204612;23;20350;-38
2023/01/18 02:52:06;;;;;;;19.77;10.48;;;-1.70;99.90;;;;;;15202624;23;20022;-38
2023/01/18 02:58:27;;;;;;;19.85;9.38;;;-1.80;99.90;;;;;;15203131;23;20041;-38
2023/01/18 03:04:53;;;;;;;19.00;10.07;;;-1.80;99.90;;;;;;15205592;23;20037;-37
2023/01/18 03:11:00;;;;;;;19.95;10.40;;;-1.80;99.90;;;;;;15203755;23;20026;-48
2023/01/18 03:17:28;;;;;;;18.75;10.18;;;-1.80;99.90;;;;;;15201847;23;20026;-38
2023/01/18 03:23:38;;;;;;;18.67;10.68;;;-1.80;99.90;;;;;;15178694;23;20032;-37
2023/01/18 03:36:04;;;;;;;22.25;10.02;;;-1.80;99.90;;;;;;15203672;23;20084;-38
2023/01/18 03:42:14;;;;;;;;;;;-1.90;99.90;;;;;;15205260;23;20108;-37
2023/01/18 03:48:16;;;;;;;21.17;10.65;;;-2.40;99.90;;;;;;15205541;23;20322;-37
2023/01/18 03:54:24;;;;;;;25.45;11.80;;;-2.30;99.90;;;;;;15204499;23;20036;-38
2023/01/18 04:00:25;;;;;;;21.95;11.38;;;-2.10;99.90;;;;;;15201154;23;20022;-38
2023/01/18 04:06:29;;;;;;;21.77;10.95;;;-2.10;99.90;;;;;;15204387;23;20130;-38
2023/01/18 04:12:33;;;;;;;20.88;10.52;;;-2.10;99.90;;;;;;15204531;23;20026;-38
2023/01/18 04:18:35;;;;;;;19.88;10.52;;;-2.10;99.90;;;;;;15209732;23;20455;-38
2023/01/18 04:24:36;;;;;;;25.20;13.13;;;-2.20;99.90;;;;;;15210370;23;20105;-38
2023/01/18 04:30:38;;;;;;;26.90;12.50;;;-2.00;99.90;;;;;;15207688;23;20057;-38
2023/01/18 04:36:40;;;;;;;26.85;11.73;;;-2.00;99.90;;;;;;15210718;23;20032;-38
2023/01/18 04:42:42;;;;;;;23.65;12.50;;;-2.00;99.90;;;;;;15208871;23;20411;-37
2023/01/18 04:48:49;;;;;;;21.10;10.60;;;-2.10;99.90;;;;;;15209786;23;20025;-38
2023/01/18 04:54:51;;;;;;;22.85;11.68;;;-2.10;99.90;;;;;;15208026;23;20463;-39
2023/01/18 05:00:53;;;;;;;22.25;12.15;;;-2.10;99.90;;;;;;15208076;23;20081;-38
2023/01/18 05:06:56;;;;;;;21.38;11.77;;;-2.00;99.90;;;;;;15208096;23;20029;-38
2023/01/18 05:12:58;;;;;;;21.73;11.60;;;-2.10;99.90;;;;;;15208332;23;20022;-37
2023/01/18 05:19:00;;;;;;;21.73;12.52;;;-2.00;99.90;;;;;;15208214;23;20565;-38
2023/01/18 05:25:04;;;;;;;25.83;12.48;;;-2.10;99.90;;;;;;15208282;23;20478;-38
2023/01/18 05:31:06;;;;;;;20.13;11.80;;;-2.10;99.90;;;;;;15207981;23;20018;-38
2023/01/18 05:37:08;;;;;;;23.63;11.93;;;-2.10;99.90;;;;;;15205488;23;20545;-38
2023/01/18 05:43:11;;;;;;;27.30;11.65;;;-2.20;99.90;;;;;;15207956;23;20350;-38
2023/01/18 05:49:13;;;;;;;22.63;12.02;;;-2.30;99.90;;;;;;15180700;23;20026;-38
2023/01/18 05:55:15;;;;;;;23.08;11.75;;;-2.30;99.90;;;;;;15205951;23;20158;-38
2023/01/18 06:01:17;;;;;;;26.23;11.90;;;-2.30;99.90;;;;;;15204126;23;20136;-37
2023/01/18 06:07:19;;;;;;;28.63;12.90;;;-2.40;99.90;;;;;;15207651;23;20053;-38
2023/01/18 06:13:22;;;;;;;24.95;12.25;;;-2.50;99.90;;;;;;15204527;23;20138;-38
2023/01/18 06:19:24;;;;;;;24.17;11.98;;;-2.50;99.90;;;;;;15206351;23;20018;-37
2023/01/18 06:25:26;;;;;;;27.92;13.82;;;-2.40;99.90;;;;;;15204667;23;20108;-38
2023/01/18 06:31:28;;;;;;;28.08;13.93;;;-2.60;99.90;;;;;;15203826;23;20126;-38
2023/01/18 06:37:30;;;;;;;24.08;12.93;;;-2.60;99.90;;;;;;15204122;23;20021;-38
2023/01/18 06:43:32;;;;;;;27.63;13.02;;;-2.50;99.90;;;;;;15203864;23;20022;-38
2023/01/18 06:49:34;;;;;;;21.17;12.27;;;-2.50;99.90;;;;;;15204737;23;20434;-38
2023/01/18 06:55:35;;;;;;;24.88;12.15;;;-2.50;99.90;;;;;;15203746;23;20022;-38
2023/01/18 07:01:37;;;;;;;26.42;13.30;;;-2.40;99.90;;;;;;15203136;23;20157;-37
2023/01/18 07:07:39;;;;;;;25.60;13.27;;;-2.50;99.90;;;;;;15203192;23;20021;-37
2023/01/18 07:13:42;;;;;;;24.17;13.05;;;-2.50;99.90;;;;;;15201132;23;20032;-37
2023/01/18 07:19:44;;;;;;;28.60;12.73;;;-2.60;99.90;;;;;;15204406;23;20462;-38
2023/01/18 07:25:46;;;;;;;29.17;13.32;;;-2.60;99.90;;;;;;15202759;23;20400;-38
2023/01/18 07:31:48;;;;;;;25.25;13.43;;;-2.60;99.90;;;;;;15203800;23;20045;-37
2023/01/18 07:37:51;;;;;;;28.00;14.23;;;-2.60;99.90;;;;;;15175186;23;20482;-37
2023/01/18 07:43:54;;;;;;;36.13;15.40;;;-2.50;99.90;;;;;;15175958;23;20030;-37
2023/01/18 07:49:56;;;;;;;21.25;12.98;;;-2.20;99.90;;;;;;15206671;23;20022;-38
2023/01/18 07:56:03;;;;;;;27.65;13.52;;;-2.20;99.90;;;;;;15207659;23;20085;-37
2023/01/18 08:02:07;;;;;;;25.80;13.23;;;-2.10;99.90;;;;;;15206501;23;20455;-38
2023/01/18 08:08:10;;;;;;;21.17;11.85;;;-2.20;99.90;;;;;;15207534;23;20026;-38
2023/01/18 08:14:12;;;;;;;17.98;10.02;;;-2.00;99.90;;;;;;15207886;23;20383;-37
2023/01/18 08:20:14;;;;;;;25.00;13.98;;;-1.90;99.90;;;;;;15207657;23;20154;-38
2023/01/18 08:26:16;;;;;;;21.00;10.68;;;-1.90;99.90;;;;;;15209781;23;20033;-37
2023/01/18 08:32:18;;;;;;;25.92;12.98;;;-1.70;99.90;;;;;;15206972;23;20109;-38
2023/01/18 08:38:20;;;;;;;27.33;13.30;;;-1.60;99.90;;;;;;15205948;23;20056;-37
2023/01/18 08:44:22;;;;;;;22.17;11.43;;;-1.40;99.90;;;;;;15205266;23;20037;-37
2023/01/18 08:50:25;;;;;;;23.50;12.18;;;-1.30;99.90;;;;;;15206793;23;20534;-38
2023/01/18 08:56:27;;;;;;;22.30;12.32;;;-1.30;99.90;;;;;;15206383;23;20024;-38
2023/01/18 09:02:28;;;;;;;21.60;11.07;;;-1.20;99.90;;;;;;15204606;23;20122;-38
2023/01/18 09:08:30;;;;;;;21.23;11.77;;;-1.10;99.90;;;;;;15206538;23;20069;-38
2023/01/18 09:14:32;;;;;;;20.10;12.02;;;-1.00;99.90;;;;;;15206621;23;20022;-38
2023/01/18 09:20:35;;;;;;;30.10;13.65;;;-0.80;99.90;;;;;;15206776;23;20073;-38
2023/01/18 09:26:37;;;;;;;27.38;12.63;;;-0.80;99.90;;;;;;15206771;23;20022;-38
2023/01/18 09:32:38;;;;;;;27.02;13.60;;;-0.60;99.90;;;;;;15206239;23;20030;-37
2023/01/18 09:38:44;;;;;;;25.33;13.80;;;-0.60;99.90;;;;;;15202523;23;20018;-38
2023/01/18 09:44:57;;;;;;;28.45;14.63;;;-0.40;99.90;;;;;;15203856;23;20100;-38
2023/01/18 09:51:04;;;;;;;26.00;14.52;;;-0.20;99.90;;;;;;15207084;23;20414;-39
2023/01/18 09:57:32;;;;;;;26.38;14.70;;;0.00;99.90;;;;;;15207517;23;20474;-38
2023/01/18 10:03:52;;;;;;;26.40;14.05;;;0.10;99.90;;;;;;15205438;23;20387;-38
2023/01/18 10:09:57;;;;;;;26.23;14.50;;;0.10;99.90;;;;;;15203456;23;20028;-38
2023/01/18 10:15:58;;;;;;;;;;;0.20;99.90;;;;;;15203769;23;20153;-38
2023/01/18 10:22:15;;;;;;;22.38;13.43;;;0.30;99.90;;;;;;15207891;23;19917;-38
2023/01/18 10:28:44;;;;;;;23.30;13.98;;;0.40;99.90;;;;;;15205199;23;20026;-38
2023/01/18 10:34:50;;;;;;;26.85;13.73;;;0.50;99.90;;;;;;15205016;23;20101;-38
2023/01/18 10:41:01;;;;;;;24.65;13.13;;;0.60;99.90;;;;;;15204837;23;20054;-38
2023/01/18 10:47:03;;;;;;;27.60;14.38;;;0.80;99.90;;;;;;15200844;23;20474;-38
2023/01/18 10:53:26;;;;;;;32.40;14.77;;;0.90;99.90;;;;;;15203806;23;20021;-38
2023/01/18 10:59:38;;;;;;;26.63;14.35;;;1.10;99.90;;;;;;15206764;23;20141;-39
2023/01/18 11:05:44;;;;;;;22.77;13.25;;;1.20;99.90;;;;;;15205543;23;20026;-38
2023/01/18 11:18:23;;;;;;;22.55;13.10;;;1.20;99.90;;;;;;15062166;23;20113;-38
2023/01/18 11:24:32;;;;;;;26.02;12.43;;;1.10;99.90;;;;;;15202524;23;20166;-38
2023/01/18 11:30:34;;;;;;;24.05;13.38;;;1.20;99.90;;;;;;15203974;23;20018;-39
2023/01/18 11:36:41;;;;;;;20.92;13.15;;;1.20;99.90;;;;;;15202858;23;20488;-39
2023/01/18 11:42:45;;;;;;;26.65;13.35;;;1.20;99.90;;;;;;15206248;23;20029;-39
2023/01/18 11:48:58;;;;;;;25.30;12.55;;;1.20;99.90;;;;;;15203809;23;20026;-39
2023/01/18 11:55:10;;;;;;;19.90;11.73;;;1.30;99.90;;;;;;15202759;23;20033;-39
2023/01/18 12:01:30;;;;;;;18.90;11.43;;;1.50;99.90;;;;;;15178675;23;20073;-38
2023/01/18 12:07:53;;;;;;;18.17;10.40;;;1.60;99.90;;;;;;15203698;23;20423;-39
2023/01/18 12:14:23;;;;;;;16.40;10.18;;;1.50;99.90;;;;;;15201388;23;20030;-38
2023/01/18 12:20:35;;;;;;;20.67;10.85;;;1.60;99.90;;;;;;15203971;23;20025;-39
2023/01/18 12:26:56;;;;;;;19.65;10.05;;;1.70;99.90;;;;;;15205416;23;20029;-39
2023/01/18 12:33:13;;;;;;;16.15;10.02;;;1.50;99.90;;;;;;15204008;23;20498;-38
2023/01/18 12:39:32;;;;;;;18.90;9.32;;;1.50;99.90;;;;;;15207687;23;20033;-39
2023/01/18 12:45:45;;;;;;;16.17;8.63;;;1.40;99.90;;;;;;15206479;23;20081;-38
2023/01/18 12:51:52;;;;;;;17.95;8.77;;;1.40;99.90;;;;;;15181440;23;20030;-39
2023/01/18 12:57:57;;;;;;;15.75;9.45;;;1.40;99.90;;;;;;15209748;23;20096;-37
2023/01/18 13:04:07;;;;;;;18.77;8.63;;;1.50;99.90;;;;;;15207070;23;20109;-38
2023/01/18 13:10:20;;;;;;;14.40;8.23;;;1.50;99.90;;;;;;15208515;23;20450;-38
2023/01/18 13:16:31;;;;;;;17.42;8.77;;;1.60;99.90;;;;;;15208532;23;20040;-38
2023/01/18 13:22:58;;;;;;;18.67;9.27;;;1.70;99.90;;;;;;15208475;23;20442;-38
2023/01/18 13:29:28;;;;;;;16.20;8.63;;;1.60;99.90;;;;;;15208618;23;20069;-38
2023/01/18 13:35:32;;;;;;;15.27;9.40;;;1.60;99.90;;;;;;15203870;23;20511;-38
2023/01/18 13:41:34;;;;;;;15.68;8.57;;;1.50;99.90;;;;;;15206004;23;20391;-38
2023/01/18 13:47:44;;;;;;;14.75;8.07;;;1.40;99.90;;;;;;15206470;23;20018;-38
2023/01/18 13:53:48;;;;;;;15.27;8.50;;;1.40;99.90;;;;;;15205875;23;20081;-37
2023/01/18 13:59:51;;;;;;;15.50;7.97;;;1.50;99.90;;;;;;15205542;23;20026;-38
2023/01/18 14:05:58;;;;;;;17.17;7.75;;;1.50;99.90;;;;;;15206095;23;20072;-38
2023/01/18 14:12:00;;;;;;;15.55;8.60;;;1.50;99.90;;;;;;15206453;23;20029;-39
2023/01/18 14:18:04;;;;;;;14.93;7.82;;;1.40;99.90;;;;;;15205116;23;20042;-37
2023/01/18 14:24:08;;;;;;;12.90;7.95;;;1.50;99.90;;;;;;15204537;23;20033;-37
2023/01/18 14:30:17;;;;;;;18.73;8.23;;;1.40;99.90;;;;;;15205575;23;20026;-38
2023/01/18 14:36:27;;;;;;;17.27;8.77;;;1.40;99.90;;;;;;15205959;23;20022;-38
2023/01/18 14:42:33;;;;;;;14.88;8.10;;;1.30;99.90;;;;;;15206824;23;20355;-38
2023/01/18 14:48:46;;;;;;;16.73;8.90;;;1.30;99.90;;;;;;15203687;23;20025;-38
2023/01/18 14:54:53;;;;;;;14.68;8.73;;;1.30;99.90;;;;;;15205604;23;20411;-37
2023/01/18 15:00:55;;;;;;;15.63;9.10;;;1.30;99.90;;;;;;15204576;23;20069;-38
2023/01/18 15:07:05;;;;;;;18.80;8.88;;;1.20;99.90;;;;;;15206440;23;20025;-38
2023/01/18 15:13:06;;;;;;;18.73;9.45;;;1.20;99.90;;;;;;15202528;23;20025;-37
2023/01/18 15:19:15;;;;;;;14.65;8.80;;;1.10;99.90;;;;;;15203419;23;20084;-37
2023/01/18 15:25:24;;;;;;;18.42;9.55;;;1.00;99.90;;;;;;15205837;23;20066;-38
2023/01/18 15:31:29;;;;;;;19.52;9.80;;;1.00;99.90;;;;;;15204487;23;20026;-38
2023/01/18 15:37:38;;;;;;;15.73;9.80;;;0.90;99.90;;;;;;15204305;23;20049;-38
2023/01/18 15:43:42;;;;;;;17.50;9.80;;;0.80;99.90;;;;;;15201583;23;20022;-37
2023/01/18 15:49:48;;;;;;;19.77;9.70;;;0.70;99.90;;;;;;15201034;23;20018;-37
2023/01/18 15:55:53;;;;;;;22.25;10.02;;;0.60;99.90;;;;;;15201859;23;20022;-38
2023/01/18 16:02:07;;;;;;;19.42;10.23;;;0.60;99.90;;;;;;15201890;23;20109;-37
2023/01/18 16:08:19;;;;;;;18.38;9.73;;;0.50;99.90;;;;;;15203699;23;20541;-38
2023/01/18 16:14:27;;;;;;;20.73;11.52;;;0.40;99.90;;;;;;15208416;23;20112;-37
2023/01/18 16:20:32;;;;;;;17.65;10.13;;;0.30;99.90;;;;;;15207424;23;20097;-37
2023/01/18 16:26:34;;;;;;;19.65;10.95;;;0.20;99.90;;;;;;15204125;23;20022;-38
2023/01/18 16:32:37;;;;;;;24.55;10.93;;;0.20;99.90;;;;;;15202804;23;20026;-38
2023/01/18 16:38:39;;;;;;;19.70;10.02;;;0.20;99.90;;;;;;15201383;23;20049;-37
2023/01/18 16:44:44;;;;;;;19.50;10.05;;;0.20;99.90;;;;;;15198601;23;20367;-38
2023/01/18 16:50:46;;;;;;;20.88;10.00;;;0.20;99.90;;;;;;15201179;23;20092;-37
2023/01/18 16:56:49;;;;;;;22.30;10.30;;;0.20;99.90;;;;;;15202982;23;20033;-37
2023/01/18 17:02:52;;;;;;;16.30;9.50;;;0.20;99.90;;;;;;15200935;23;20046;-37
2023/01/18 17:08:54;;;;;;;17.83;9.52;;;0.20;99.90;;;;;;15200310;23;20354;-38
2023/01/18 17:14:56;;;;;;;20.73;9.55;;;0.30;99.90;;;;;;15202598;23;20121;-38
2023/01/18 17:20:58;;;;;;;16.17;9.57;;;0.30;99.90;;;;;;15174256;23;20026;-37
2023/01/18 17:27:00;;;;;;;18.60;10.57;;;0.30;99.90;;;;;;15203457;23;20026;-37
2023/01/18 17:33:02;;;;;;;18.95;9.52;;;0.20;99.90;;;;;;15201772;23;20110;-38
2023/01/18 17:39:04;;;;;;;29.98;10.55;;;0.20;99.90;;;;;;15199615;23;20466;-37
2023/01/18 17:45:08;;;;;;;20.05;10.18;;;0.20;99.90;;;;;;15175028;23;20105;-37
2023/01/18 17:51:12;;;;;;;18.77;10.00;;;0.10;99.90;;;;;;15202380;23;20041;-37
2023/01/18 17:57:14;;;;;;;21.02;10.05;;;0.10;99.90;;;;;;15200537;23;20451;-38
2023/01/18 18:03:16;;;;;;;17.85;9.85;;;0.10;99.90;;;;;;15197317;23;20040;-37
2023/01/18 18:09:18;;;;;;;17.10;8.98;;;0.10;99.90;;;;;;15200978;23;20053;-38
2023/01/18 18:15:21;;;;;;;17.70;9.57;;;0.10;99.90;;;;;;15194869;23;20105;-38
2023/01/18 18:21:25;;;;;;;24.05;10.63;;;0.10;99.90;;;;;;15175271;23;20347;-37
2023/01/18 18:27:28;;;;;;;18.50;9.43;;;0.10;99.90;;;;;;15200247;23;20025;-37
2023/01/18 18:33:46;;;;;;;21.00;9.60;;;0.20;99.90;;;;;;15175312;23;20037;-38
2023/01/18 18:39:48;;;;;;;18.15;9.60;;;0.20;99.90;;;;;;15197309;23;20100;-37
2023/01/18 18:45:50;;;;;;;19.33;8.48;;;0.20;99.90;;;;;;15197884;23;20149;-38
2023/01/18 18:51:52;;;;;;;17.60;9.13;;;0.20;99.90;;;;;;15197383;23;20022;-38
2023/01/18 18:57:54;;;;;;;17.73;9.05;;;0.30;99.90;;;;;;15200958;23;20026;-38
2023/01/18 19:03:57;;;;;;;18.58;8.98;;;0.30;99.90;;;;;;15201774;23;20026;-38
2023/01/18 19:09:59;;;;;;;17.15;8.80;;;0.40;99.90;;;;;;15200736;23;20149;-38
2023/01/18 19:16:01;;;;;;;16.88;8.02;;;0.40;99.90;;;;;;15198463;23;20029;-37
2023/01/18 19:22:03;;;;;;;14.73;7.95;;;0.30;99.90;;;;;;15200069;23;20466;-38
2023/01/18 19:28:05;;;;;;;14.88;8.30;;;0.40;99.90;;;;;;15199271;23;20141;-37
2023/01/18 19:34:07;;;;;;;17.08;8.55;;;0.30;99.90;;;;;;15198558;23;20471;-38
2023/01/18 19:40:10;;;;;;;16.50;8.00;;;0.40;99.90;;;;;;15197086;23;20458;-37
2023/01/18 19:46:13;;;;;;;16.27;7.88;;;0.40;99.90;;;;;;15201948;23;20765;-37
2023/01/18 19:52:16;;;;;;;14.40;7.25;;;0.40;99.90;;;;;;15203467;23;20029;-38
2023/01/18 19:58:18;;;;;;;18.67;7.70;;;0.40;99.90;;;;;;15205304;23;20021;-38
2023/01/18 20:04:19;;;;;;;15.93;7.53;;;0.40;99.90;;;;;;15203287;23;20549;-38
2023/01/18 20:10:21;;;;;;;15.93;7.00;;;0.50;99.90;;;;;;15173427;23;20116;-38
2023/01/18 20:16:23;;;;;;;13.38;7.03;;;0.50;99.90;;;;;;15201725;23;20463;-37
2023/01/18 20:22:25;;;;;;;13.77;7.75;;;0.40;99.90;;;;;;15181328;23;20029;-37
2023/01/18 20:28:27;;;;;;;14.50;8.13;;;0.40;99.90;;;;;;15199031;23;20864;-37
2023/01/18 20:34:29;;;;;;;14.27;7.53;;;0.40;99.90;;;;;;15204093;23;20666;-38
2023/01/18 20:40:32;;;;;;;14.73;7.68;;;0.40;99.90;;;;;;15197849;23;20037;-37
2023/01/18 20:46:34;;;;;;;12.27;7.15;;;0.40;99.90;;;;;;15174767;23;20077;-37
2023/01/18 20:52:36;;;;;;;14.57;8.32;;;0.30;99.90;;;;;;15202630;23;20097;-37
2023/01/18 20:58:38;;;;;;;15.27;7.97;;;0.30;99.90;;;;;;15174509;23;20041;-38
2023/01/18 21:04:40;;;;;;;13.02;7.45;;;0.30;99.90;;;;;;15175007;23;20029;-37
2023/01/18 21:10:42;;;;;;;15.05;8.13;;;0.30;99.90;;;;;;15201449;23;20101;-38
2023/01/18 21:16:44;;;;;;;15.45;7.85;;;0.20;99.90;;;;;;15199763;23;20033;-38
2023/01/18 21:22:46;;;;;;;17.52;8.32;;;0.20;99.90;;;;;;15180786;23;20029;-37
2023/01/18 21:28:48;;;;;;;16.25;7.38;;;0.30;99.90;;;;;;15201686;23;20025;-38
2023/01/18 21:34:50;;;;;;;14.30;7.30;;;0.20;99.90;;;;;;15174293;23;20036;-38
2023/01/18 21:40:52;;;;;;;15.40;7.43;;;0.20;99.90;;;;;;15177968;23;20033;-38
2023/01/18 21:46:54;;;;;;;13.43;7.75;;;0.20;99.90;;;;;;15204085;23;20053;-38
2023/01/18 21:59:17;;;;;;;14.60;6.75;;;0.30;99.90;;;;;;15198445;23;20082;-38
2023/01/18 22:05:19;;;;;;;12.85;6.60;;;0.40;99.90;;;;;;15201701;23;20105;-37
2023/01/18 22:11:20;;;;;;;15.27;6.93;;;0.40;99.90;;;;;;15201372;23;20030;-38
2023/01/18 22:17:22;;;;;;;11.68;6.32;;;0.40;99.90;;;;;;15201196;23;20026;-38
2023/01/18 22:23:24;;;;;;;12.55;6.38;;;0.40;99.90;;;;;;15200591;23;20034;-37
2023/01/18 22:29:26;;;;;;;10.70;5.72;;;0.40;99.90;;;;;;15200108;23;20033;-38
2023/01/18 22:35:30;;;;;;;15.55;6.63;;;0.40;99.90;;;;;;15174109;23;20125;-38
2023/01/18 22:41:32;;;;;;;9.73;5.45;;;0.40;99.90;;;;;;15196068;23;20036;-38
2023/01/18 22:47:34;;;;;;;11.52;5.85;;;0.40;99.90;;;;;;15202028;23;20022;-38
2023/01/18 22:53:36;;;;;;;8.55;5.20;;;0.50;99.90;;;;;;15200707;23;20037;-38
2023/01/18 22:59:38;;;;;;;12.38;5.70;;;0.50;99.90;;;;;;15202569;23;20359;-38
2023/01/18 23:05:40;;;;;;;10.77;5.88;;;0.50;99.90;;;;;;15200056;23;20062;-38
2023/01/18 23:11:43;;;;;;;11.30;6.22;;;0.50;99.90;;;;;;15198384;23;20025;-38
2023/01/18 23:17:45;;;;;;;11.10;5.60;;;0.70;99.90;;;;;;15201360;23;20521;-38
2023/01/18 23:23:48;;;;;;;12.80;5.15;;;0.60;99.90;;;;;;15198755;23;20050;-38
2023/01/18 23:29:58;;;;;;;11.60;5.78;;;0.60;99.90;;;;;;15197956;23;20317;-37
2023/01/18 23:36:00;;;;;;;11.50;6.03;;;0.60;99.90;;;;;;15199725;23;20026;-38
2023/01/18 23:54:43;;;;;;;15.38;7.03;;;0.70;99.90;;;;;;15199728;23;20033;-37
